Time;durP1;ratioP1;P1;durP2;ratioP2;P2;SDS_P1;SDS_P2;PMS_P1;PMS_P2;Temp;Humidity;BMP_temperature;BMP_pressure;BME280_temperature;BME280_humidity;BME280_pressure;Samples;Min_cycle;Max_cycle;Signal;HPM_P1;HPM_P2
2023/03/05 00:02:03;;;;;;;1.15;0.50;;;;;;;-0.29;55.35;99119.80;1680521;85;21145;-65
2023/03/05 00:04:34;;;;;;;1.42;0.45;;;;;;;-0.33;55.39;99116.59;1680619;85;21527;-65
2023/03/05 00:07:04;;;;;;;1.25;0.55;;;;;;;-0.37;54.94;99127.33;1680599;85;21028;-65
2023/03/05 00:09:34;;;;;;;0.65;0.50;;;;;;;-0.44;53.29;99126.28;1680669;85;21087;-65
2023/03/05 00:12:05;;;;;;;1.70;0.40;;;;;;;-0.54;52.78;99122.86;1680548;85;21043;-64
2023/03/05 00:14:35;;;;;;;1.45;0.60;;;;;;;-0.63;52.49;99134.06;1680754;85;21083;-65
2023/03/05 00:17:04;;;;;;;1.27;0.50;;;;;;;-0.67;52.80;99132.66;1680359;85;21040;-65
2023/03/05 00:19:33;;;;;;;12.13;1.55;;;;;;;-0.69;52.73;99130.63;1680493;85;21067;-64
2023/03/05 00:22:01;;;;;;;2.17;0.60;;;;;;;-0.71;52.40;99146.92;1680547;85;21055;-64
2023/03/05 00:24:32;;;;;;;0.80;0.40;;;;;;;-0.76;52.04;99149.73;1680507;85;21447;-65
2023/03/05 00:27:01;;;;;;;3.30;0.60;;;;;;;-0.80;52.58;99149.70;1680715;85;21079;-64
2023/03/05 00:29:30;;;;;;;2.30;0.82;;;;;;;-0.79;52.98;99156.77;1680686;85;21070;-65
2023/03/05 00:31:59;;;;;;;1.20;0.50;;;;;;;-0.80;52.61;99153.73;1680676;85;21059;-65
2023/03/05 00:34:30;;;;;;;3.83;0.70;;;;;;;-0.85;52.59;99151.52;1680570;85;21463;-65
2023/03/05 00:37:00;;;;;;;0.78;0.40;;;;;;;-0.87;52.81;99157.55;1680693;85;21961;-64
2023/03/05 00:39:30;;;;;;;1.25;0.60;;;;;;;-0.89;53.04;99157.36;1680592;85;21062;-65
2023/03/05 00:41:59;;;;;;;1.90;0.53;;;;;;;-0.88;52.81;99157.70;1687721;83;21090;-64
2023/03/05 00:44:29;;;;;;;1.25;0.60;;;;;;;-0.91;52.88;99166.08;1695696;84;21058;-65
2023/03/05 00:46:58;;;;;;;2.37;0.70;;;;;;;-0.93;52.95;99166.73;1695784;85;21082;-65
2023/03/05 00:49:28;;;;;;;2.47;0.60;;;;;;;-0.96;53.32;99159.83;1695568;83;21443;-64
2023/03/05 00:51:57;;;;;;;1.90;0.70;;;;;;;-0.97;53.71;99178.30;1695489;85;21046;-65
2023/03/05 00:54:26;;;;;;;2.92;0.72;;;;;;;-0.97;53.42;99173.77;1695298;85;21969;-66
2023/03/05 00:56:55;;;;;;;3.10;0.62;;;;;;;-1.01;53.55;99183.14;1695576;83;21023;-65
2023/03/05 00:59:27;;;;;;;0.93;0.42;;;;;;;-1.02;53.68;99185.98;1695440;85;21030;-65
2023/03/05 01:01:56;;;;;;;1.50;0.62;;;;;;;-1.06;53.70;99198.88;1695523;84;21063;-65
2023/03/05 01:04:26;;;;;;;1.92;0.62;;;;;;;-1.09;53.41;99197.84;1695369;83;21034;-64
2023/03/05 01:06:58;;;;;;;1.62;0.60;;;;;;;-1.12;53.87;99191.93;1695434;83;21027;-65
2023/03/05 01:09:27;;;;;;;2.12;0.60;;;;;;;-1.13;54.16;99201.84;1695632;85;21114;-65
2023/03/05 01:11:56;;;;;;;5.72;0.72;;;;;;;-1.13;54.06;99205.02;1695710;85;21018;-65
2023/03/05 01:14:27;;;;;;;1.37;0.42;;;;;;;-1.13;54.14;99207.21;1695750;84;21094;-65
2023/03/05 01:16:57;;;;;;;1.60;0.65;;;;;;;-1.13;53.93;99207.21;1695194;84;21066;-65
2023/03/05 01:19:27;;;;;;;1.67;0.60;;;;;;;-1.15;54.07;99209.20;1695595;83;21035;-65
2023/03/05 01:21:56;;;;;;;2.62;0.50;;;;;;;-1.18;54.11;99202.79;1695446;85;21046;-66
2023/03/05 01:24:26;;;;;;;1.15;0.50;;;;;;;-1.19;54.32;99206.48;1695419;83;21447;-65
2023/03/05 01:26:55;;;;;;;0.70;0.50;;;;;;;-1.20;53.82;99211.50;1695571;85;21083;-64
2023/03/05 01:29:24;;;;;;;1.95;0.80;;;;;;;-1.25;53.74;99200.86;1695663;85;21078;-64
2023/03/05 01:31:52;;;;;;;1.98;1.30;;;;;;;-1.29;53.84;99215.10;1695505;85;21114;-65
2023/03/05 01:34:21;;;;;;;1.65;0.90;;;;;;;-1.30;54.03;99214.26;1695556;83;21073;-65
2023/03/05 01:36:51;;;;;;;1.65;0.85;;;;;;;-1.30;54.15;99223.66;1695454;84;21533;-65
2023/03/05 01:39:21;;;;;;;2.67;0.80;;;;;;;-1.35;54.14;99225.08;1695595;84;21035;-65
2023/03/05 01:41:49;;;;;;;3.55;0.80;;;;;;;-1.39;54.07;99215.13;1691099;84;21681;-65
2023/03/05 01:44:25;;;;;;;2.70;0.50;;;;;;;-1.38;54.19;99220.00;1680846;85;21444;-65
2023/03/05 01:46:55;;;;;;;2.10;0.75;;;;;;;-1.42;54.44;99222.64;1680625;85;21044;-65
2023/03/05 01:49:30;;;;;;;2.17;0.60;;;;;;;-1.45;54.40;99237.22;1680921;85;21033;-65
2023/03/05 01:52:16;;;;;;;1.17;0.60;;;;;;;-1.46;54.56;99227.97;1681014;85;21080;-65
2023/03/05 01:54:54;;;;;;;1.75;0.60;;;;;;;-1.45;54.76;99233.69;1680452;85;21079;-64
2023/03/05 01:57:27;;;;;;;3.65;0.65;;;;;;;-1.45;54.99;99230.51;1680631;85;21483;-65
2023/03/05 02:00:09;;;;;;;2.35;0.90;;;;;;;-1.45;55.18;99232.34;1680523;85;21051;-64
2023/03/05 02:02:43;;;;;;;2.55;0.50;;;;;;;-1.45;55.21;99224.29;1680782;85;21079;-65
2023/03/05 02:05:25;;;;;;;2.62;0.70;;;;;;;-1.46;55.24;99244.09;1680435;85;21043;-66
2023/03/05 02:07:59;;;;;;;2.22;0.70;;;;;;;-1.47;55.14;99241.05;1680488;85;21008;-66
2023/03/05 02:10:35;;;;;;;1.63;0.60;;;;;;;-1.49;55.36;99251.95;1680640;85;21463;-65
2023/03/05 02:13:15;;;;;;;0.98;0.50;;;;;;;-1.51;55.17;99242.34;1680659;85;21090;-65
2023/03/05 02:15:46;;;;;;;2.00;0.50;;;;;;;-1.54;55.45;99242.64;1680731;85;21039;-66
2023/03/05 02:18:16;;;;;;;1.75;0.70;;;;;;;-1.55;55.67;99244.98;1680169;85;21075;-66
2023/03/05 02:20:55;;;;;;;1.50;0.60;;;;;;;-1.55;55.79;99257.07;1680849;85;21039;-66
2023/03/05 02:23:27;;;;;;;1.67;0.68;;;;;;;-1.54;55.87;99247.52;1680523;85;21063;-65
2023/03/05 02:25:58;;;;;;;1.17;0.55;;;;;;;-1.54;56.10;99262.80;1680579;85;21455;-65
2023/03/05 02:28:41;;;;;;;1.60;0.62;;;;;;;-1.58;56.16;99256.87;1680366;85;21114;-65
2023/03/05 02:31:12;;;;;;;1.72;0.70;;;;;;;-1.58;56.44;99256.03;1680477;85;21043;-66
2023/03/05 02:33:42;;;;;;;2.00;0.65;;;;;;;-1.54;56.76;99267.66;1657505;85;21138;-65
2023/03/05 02:36:12;;;;;;;1.82;0.80;;;;;;;-1.51;56.68;99259.80;1680529;85;21159;-65
2023/03/05 02:38:42;;;;;;;2.37;0.50;;;;;;;-1.47;56.91;99257.17;1680379;85;21012;-65
2023/03/05 02:41:11;;;;;;;0.93;0.50;;;;;;;-1.44;56.81;99262.24;1680411;85;21050;-66
2023/03/05 02:43:41;;;;;;;1.37;0.50;;;;;;;-1.43;56.84;99266.63;1676731;83;21115;-66
2023/03/05 02:46:11;;;;;;;2.85;0.70;;;;;;;-1.44;56.87;99260.91;1676365;85;21107;-65
2023/03/05 02:48:41;;;;;;;1.72;0.70;;;;;;;-1.42;57.03;99268.31;1676562;85;21087;-65
2023/03/05 02:51:12;;;;;;;1.87;0.72;;;;;;;-1.44;56.95;99272.49;1676308;85;21063;-65
2023/03/05 02:53:44;;;;;;;1.17;0.45;;;;;;;-1.47;57.02;99260.70;1676360;85;21036;-66
2023/03/05 02:56:13;;;;;;;2.00;0.60;;;;;;;-1.50;56.98;99270.40;1676531;85;21065;-66
2023/03/05 02:58:43;;;;;;;2.40;0.60;;;;;;;-1.50;57.19;99269.05;1676371;85;21525;-65
2023/03/05 03:01:13;;;;;;;1.35;0.57;;;;;;;-1.46;57.44;99264.23;1676451;85;21079;-65
2023/03/05 03:03:42;;;;;;;1.22;0.60;;;;;;;-1.45;57.55;99272.14;1676385;85;21480;-64
2023/03/05 03:06:11;;;;;;;1.82;0.70;;;;;;;-1.42;57.75;99261.59;1676335;85;21179;-66
2023/03/05 03:08:41;;;;;;;5.20;0.62;;;;;;;-1.42;57.68;99265.62;1676613;85;21481;-66
2023/03/05 03:11:12;;;;;;;5.42;2.15;;;;;;;-1.45;57.96;99265.43;1676321;85;21468;-65
2023/03/05 03:13:41;;;;;;;2.45;0.93;;;;;;;-1.44;58.23;99273.83;1676399;85;21264;-65
2023/03/05 03:16:13;;;;;;;3.02;1.00;;;;;;;-1.42;58.18;99272.34;1676550;85;21055;-66
2023/03/05 03:18:43;;;;;;;1.35;0.68;;;;;;;-1.42;58.23;99271.00;1676134;85;21465;-65
2023/03/05 03:21:19;;;;;;;1.15;0.70;;;;;;;-1.46;58.31;99275.83;1676318;85;21522;-64
2023/03/05 03:23:48;;;;;;;1.77;0.72;;;;;;;-1.46;58.34;99278.52;1676401;85;21079;-66
2023/03/05 03:26:18;;;;;;;1.70;0.90;;;;;;;-1.47;58.41;99282.69;1676291;85;21040;-65
2023/03/05 03:28:49;;;;;;;2.15;0.80;;;;;;;-1.48;58.83;99281.00;1676318;85;21095;-65
2023/03/05 03:31:18;;;;;;;2.98;0.75;;;;;;;-1.47;59.05;99280.84;1676295;85;21075;-66
2023/03/05 03:33:47;;;;;;;4.95;1.05;;;;;;;-1.47;59.29;99286.22;1676277;85;21047;-66
2023/03/05 03:36:16;;;;;;;2.08;0.70;;;;;;;-1.47;59.06;99284.03;1676421;85;21490;-66
2023/03/05 03:38:46;;;;;;;1.98;0.80;;;;;;;-1.46;59.03;99279.01;1676362;85;21040;-65
2023/03/05 03:41:16;;;;;;;2.05;0.72;;;;;;;-1.43;59.05;99288.11;1676331;85;21553;-64
2023/03/05 03:43:44;;;;;;;3.35;1.00;;;;;;;-1.42;59.00;99276.37;1691161;84;21050;-65
2023/03/05 03:46:15;;;;;;;3.65;0.80;;;;;;;-1.42;58.98;99284.43;1695227;83;21528;-65
2023/03/05 03:48:44;;;;;;;3.95;0.90;;;;;;;-1.43;59.08;99289.45;1695347;83;21093;-66
2023/03/05 03:51:13;;;;;;;1.65;0.80;;;;;;;-1.43;59.42;99281.39;1695513;85;21034;-64
2023/03/05 03:53:41;;;;;;;1.60;0.70;;;;;;;-1.44;59.35;99292.64;1695610;85;21035;-65
2023/03/05 03:56:12;;;;;;;3.25;0.60;;;;;;;-1.49;59.23;99276.63;1695139;85;21486;-66
2023/03/05 03:58:41;;;;;;;2.98;0.70;;;;;;;-1.53;59.26;99277.41;1695348;85;21070;-64
2023/03/05 04:01:12;;;;;;;4.17;0.80;;;;;;;-1.54;59.51;99286.47;1695488;83;21113;-65
2023/03/05 04:03:40;;;;;;;2.65;0.88;;;;;;;-1.56;59.60;99277.70;1695466;85;21074;-64
2023/03/05 04:06:11;;;;;;;1.77;0.80;;;;;;;-1.57;59.70;99288.10;1695436;83;21043;-65
2023/03/05 04:08:42;;;;;;;2.90;0.90;;;;;;;-1.60;59.87;99291.93;1695092;85;21993;-64
2023/03/05 04:11:12;;;;;;;2.90;0.82;;;;;;;-1.60;59.77;99291.09;1695394;84;21438;-65
2023/03/05 04:13:41;;;;;;;3.58;0.90;;;;;;;-1.61;60.01;99279.99;1695592;84;21074;-65
2023/03/05 04:16:10;;;;;;;2.47;0.80;;;;;;;-1.60;60.22;99288.40;1695563;85;21086;-65
2023/03/05 04:18:41;;;;;;;2.17;1.12;;;;;;;-1.55;60.38;99286.61;1695824;85;21059;-65
2023/03/05 04:21:10;;;;;;;18.87;11.68;;;;;;;-1.50;60.20;99285.67;1695318;85;21109;-65
2023/03/05 04:23:40;;;;;;;6.35;1.42;;;;;;;-1.51;60.05;99297.41;1695541;85;21479;-65
2023/03/05 04:26:09;;;;;;;3.08;0.90;;;;;;;-1.54;59.99;99290.49;1695569;85;21090;-65
2023/03/05 04:28:39;;;;;;;2.85;0.60;;;;;;;-1.61;60.08;99300.14;1695557;84;21067;-65
2023/03/05 04:31:07;;;;;;;1.37;0.60;;;;;;;-1.66;60.26;99305.95;1695686;84;21093;-65
2023/03/05 04:33:39;;;;;;;5.30;0.72;;;;;;;-1.65;60.29;99296.05;1695434;84;21035;-65
2023/03/05 04:36:08;;;;;;;1.62;0.60;;;;;;;-1.64;60.27;99297.25;1695607;85;21082;-64
2023/03/05 04:38:40;;;;;;;2.62;0.80;;;;;;;-1.58;60.53;99292.28;1639743;87;21513;-66
2023/03/05 04:41:09;;;;;;;3.60;0.90;;;;;;;-1.52;60.56;99302.43;1639973;87;21038;-65
2023/03/05 04:43:38;;;;;;;3.45;1.57;;;;;;;-1.51;60.10;99300.94;1639900;86;21146;-64
2023/03/05 04:46:07;;;;;;;3.17;1.20;;;;;;;-1.54;60.16;99296.36;1640014;87;21133;-66
2023/03/05 04:48:36;;;;;;;6.10;1.70;;;;;;;-1.52;60.41;99305.12;1639827;87;21094;-65
2023/03/05 04:51:05;;;;;;;3.25;1.10;;;;;;;-1.51;60.43;99306.81;1639824;87;21482;-66
2023/03/05 04:53:35;;;;;;;6.30;1.42;;;;;;;-1.48;60.42;99305.17;1639806;86;21034;-65
2023/03/05 04:56:07;;;;;;;1.42;0.82;;;;;;;-1.46;60.10;99306.72;1651140;84;21027;-66
2023/03/05 04:58:36;;;;;;;4.25;1.00;;;;;;;-1.44;60.12;99315.97;1698002;83;20999;-65
2023/03/05 05:01:06;;;;;;;4.72;1.07;;;;;;;-1.47;59.69;99319.80;1721038;83;21046;-66
2023/03/05 05:03:36;;;;;;;3.00;0.60;;;;;;;-1.49;59.74;99322.28;1726275;83;21090;-66
2023/03/05 05:06:06;;;;;;;2.35;0.80;;;;;;;-1.50;59.54;99317.41;1721454;83;21522;-65
2023/03/05 05:08:37;;;;;;;2.50;1.40;;;;;;;-1.50;59.71;99312.03;1702190;84;21443;-65
2023/03/05 05:11:07;;;;;;;2.25;0.80;;;;;;;-1.49;59.60;99321.78;1721200;82;21057;-65
2023/03/05 05:13:37;;;;;;;3.80;1.00;;;;;;;-1.51;59.56;99325.61;1703174;84;21067;-65
2023/03/05 05:16:08;;;;;;;1.95;1.00;;;;;;;-1.52;59.91;99336.00;1721367;82;21481;-65
2023/03/05 05:18:37;;;;;;;2.15;0.98;;;;;;;-1.50;59.70;99321.93;1702847;84;21038;-65
2023/03/05 05:21:08;;;;;;;3.03;1.00;;;;;;;-1.48;59.51;99333.38;1721119;83;21410;-65
2023/03/05 05:23:38;;;;;;;1.98;0.95;;;;;;;-1.50;59.27;99346.10;1692328;84;21056;-64
2023/03/05 05:26:08;;;;;;;2.70;0.90;;;;;;;-1.51;59.30;99339.04;1721128;83;21406;-66
2023/03/05 05:28:37;;;;;;;2.80;0.90;;;;;;;-1.51;59.38;99333.67;1721267;83;21037;-66
2023/03/05 05:31:10;;;;;;;3.17;1.20;;;;;;;-1.48;59.43;99333.38;1702704;83;21037;-66
2023/03/05 05:33:40;;;;;;;1.60;0.85;;;;;;;-1.46;59.60;99340.79;1721108;82;21057;-66
2023/03/05 05:36:13;;;;;;;3.10;0.90;;;;;;;-1.47;59.47;99348.50;1692412;84;21183;-66
2023/03/05 05:38:41;;;;;;;7.08;1.25;;;;;;;-1.44;59.35;99349.05;1702884;84;21241;-66
2023/03/05 05:41:12;;;;;;;4.33;1.20;;;;;;;-1.39;59.58;99348.61;1721116;83;21089;-65
2023/03/05 05:43:41;;;;;;;9.90;1.55;;;;;;;-1.37;59.36;99342.59;1694196;84;21552;-64
2023/03/05 05:46:16;;;;;;;4.92;1.10;;;;;;;-1.42;58.64;99343.53;1685124;85;21059;-66
2023/03/05 05:48:45;;;;;;;2.83;1.00;;;;;;;-1.46;59.21;99348.84;1680701;85;21036;-65
2023/03/05 05:51:20;;;;;;;5.10;1.10;;;;;;;-1.48;59.43;99344.12;1680829;85;21100;-65
2023/03/05 05:53:50;;;;;;;2.80;0.88;;;;;;;-1.46;59.62;99360.94;1681028;85;21019;-65
2023/03/05 05:56:21;;;;;;;1.92;0.72;;;;;;;-1.41;59.56;99352.78;1680809;85;21542;-64
2023/03/05 05:58:51;;;;;;;1.90;0.90;;;;;;;-1.40;59.49;99350.45;1680837;85;21079;-65
2023/03/05 06:01:28;;;;;;;6.25;0.95;;;;;;;-1.38;59.49;99342.23;1680818;85;21031;-65
2023/03/05 06:03:57;;;;;;;3.40;0.90;;;;;;;-1.34;59.31;99349.01;1680689;85;21491;-65
2023/03/05 06:06:27;;;;;;;3.83;1.57;;;;;;;-1.32;59.09;99346.52;1680776;85;21043;-66
2023/03/05 06:08:57;;;;;;;3.85;1.02;;;;;;;-1.32;59.21;99349.21;1680934;85;21087;-65
2023/03/05 06:11:26;;;;;;;3.52;1.30;;;;;;;-1.29;59.45;99350.29;1680799;85;21115;-64
2023/03/05 06:13:55;;;;;;;2.15;1.00;;;;;;;-1.21;59.51;99354.92;1680781;85;21016;-66
2023/03/05 06:16:25;;;;;;;2.95;1.00;;;;;;;-1.14;59.46;99352.48;1681100;85;21063;-64
2023/03/05 06:18:55;;;;;;;6.25;0.80;;;;;;;-1.06;59.25;99355.27;1681015;85;21087;-65
2023/03/05 06:21:23;;;;;;;2.92;0.70;;;;;;;-1.03;58.73;99354.97;1680869;85;21035;-66
2023/03/05 06:23:53;;;;;;;3.08;0.95;;;;;;;-1.05;58.45;99352.93;1680505;85;21067;-66
2023/03/05 06:26:24;;;;;;;5.05;1.30;;;;;;;-1.06;58.63;99364.19;1680800;85;21471;-65
2023/03/05 06:28:54;;;;;;;3.50;1.05;;;;;;;-1.07;58.58;99363.83;1681004;85;21537;-65
2023/03/05 06:31:25;;;;;;;2.87;1.00;;;;;;;-1.09;58.36;99363.63;1680998;85;21086;-64
2023/03/05 06:33:56;;;;;;;5.00;0.90;;;;;;;-1.06;58.65;99366.87;1681019;85;21063;-64
2023/03/05 06:36:26;;;;;;;4.83;1.17;;;;;;;-1.00;58.74;99369.45;1680631;85;21062;-65
2023/03/05 06:38:55;;;;;;;4.10;1.45;;;;;;;-0.93;58.63;99363.83;1680992;85;21087;-65
2023/03/05 06:41:27;;;;;;;2.08;0.80;;;;;;;-0.93;58.24;99367.02;1680929;85;21015;-66
2023/03/05 06:44:01;;;;;;;6.05;1.00;;;;;;;-0.94;58.20;99361.30;1698789;82;21050;-64
2023/03/05 06:46:34;;;;;;;2.55;0.68;;;;;;;-0.94;58.17;99368.86;1721189;82;20996;-65
2023/03/05 06:49:04;;;;;;;3.27;0.98;;;;;;;-0.95;58.10;99372.55;1721066;82;21102;-65
2023/03/05 06:51:37;;;;;;;2.72;1.00;;;;;;;-0.96;58.34;99370.35;1721182;82;21031;-66
2023/03/05 06:54:09;;;;;;;3.35;1.30;;;;;;;-0.92;58.22;99379.46;1720512;82;21079;-65
2023/03/05 06:56:42;;;;;;;2.25;0.93;;;;;;;-0.91;58.24;99378.47;1721057;83;21471;-65
2023/03/05 06:59:13;;;;;;;3.10;1.02;;;;;;;-0.88;58.26;99382.20;1720954;83;21027;-66
2023/03/05 07:01:44;;;;;;;2.75;1.12;;;;;;;-0.85;58.13;99392.66;1721170;82;21530;-66
2023/03/05 07:04:14;;;;;;;3.92;1.05;;;;;;;-0.84;58.03;99386.28;1721059;83;21047;-65
2023/03/05 07:06:42;;;;;;;4.25;1.15;;;;;;;-0.83;57.94;99379.41;1721177;82;21510;-66
2023/03/05 07:09:14;;;;;;;2.77;1.50;;;;;;;-0.80;58.04;99387.17;1721210;82;21407;-65
2023/03/05 07:11:43;;;;;;;4.17;1.32;;;;;;;-0.77;58.15;99386.03;1720859;82;21051;-67
2023/03/05 07:14:12;;;;;;;3.52;1.10;;;;;;;-0.75;58.31;99386.72;1721294;83;21019;-66
2023/03/05 07:16:42;;;;;;;2.58;1.05;;;;;;;-0.70;58.39;99386.62;1720910;82;21495;-67
2023/03/05 07:19:13;;;;;;;5.20;1.05;;;;;;;-0.63;58.35;99381.52;1644149;87;21496;-67
2023/03/05 07:21:42;;;;;;;4.42;1.40;;;;;;;-0.59;58.04;99391.47;1599412;90;21069;-65
2023/03/05 07:24:13;;;;;;;4.92;0.88;;;;;;;-0.60;57.86;99390.63;1597739;90;21053;-65
2023/03/05 07:26:42;;;;;;;2.85;0.93;;;;;;;-0.57;57.74;99393.02;1597890;90;21071;-66
2023/03/05 07:29:11;;;;;;;2.55;0.90;;;;;;;-0.49;57.83;99403.86;1597927;90;21095;-64
2023/03/05 07:31:42;;;;;;;6.05;1.50;;;;;;;-0.39;57.65;99395.72;1597732;90;21063;-66
2023/03/05 07:34:12;;;;;;;3.83;1.40;;;;;;;-0.30;57.46;99399.34;1597629;90;21095;-65
2023/03/05 07:36:41;;;;;;;4.25;1.40;;;;;;;-0.20;57.61;99396.07;1615573;85;21056;-64
2023/03/05 07:39:13;;;;;;;3.70;1.07;;;;;;;-0.06;57.47;99397.72;1695617;83;21471;-66
2023/03/05 07:41:42;;;;;;;2.83;1.25;;;;;;;0.05;56.83;99408.79;1695590;85;21114;-65
2023/03/05 07:44:10;;;;;;;2.98;0.98;;;;;;;0.11;56.53;99398.74;1695261;83;21046;-65
2023/03/05 07:46:39;;;;;;;2.85;1.00;;;;;;;0.15;56.38;99410.05;1695584;83;21039;-65
2023/03/05 07:49:08;;;;;;;6.37;1.30;;;;;;;0.17;56.00;99416.13;1695454;83;21035;-65
2023/03/05 07:51:39;;;;;;;3.98;1.50;;;;;;;0.20;55.52;99417.16;1695400;84;21082;-66
2023/03/05 07:54:09;;;;;;;3.90;1.25;;;;;;;0.20;55.26;99418.00;1691016;83;21529;-66
2023/03/05 07:56:39;;;;;;;3.72;1.22;;;;;;;0.17;55.45;99412.93;1695666;84;21063;-67
2023/03/05 07:59:10;;;;;;;1.85;1.07;;;;;;;0.23;55.41;99410.96;1695843;83;21019;-66
2023/03/05 08:01:39;;;;;;;5.70;1.20;;;;;;;0.30;55.35;99406.64;1695358;83;21434;-67
2023/03/05 08:04:09;;;;;;;3.83;1.40;;;;;;;0.39;55.01;99416.13;1695307;84;21066;-66
2023/03/05 08:06:41;;;;;;;3.58;1.20;;;;;;;0.43;54.76;99407.58;1695412;84;21415;-67
2023/03/05 08:09:10;;;;;;;2.50;0.82;;;;;;;0.49;54.50;99424.95;1695453;85;21034;-65
2023/03/05 08:11:41;;;;;;;3.15;0.85;;;;;;;0.56;53.69;99419.28;1695441;84;21071;-66
2023/03/05 08:14:10;;;;;;;5.03;0.95;;;;;;;0.71;53.88;99417.73;1690885;84;21088;-65
2023/03/05 08:16:39;;;;;;;2.42;0.90;;;;;;;0.85;52.46;99417.14;1695859;85;21043;-65
2023/03/05 08:19:09;;;;;;;3.62;1.00;;;;;;;0.81;52.24;99413.08;1695668;83;21067;-67
2023/03/05 08:21:41;;;;;;;2.87;0.95;;;;;;;0.75;52.41;99419.61;1695466;85;21599;-66
2023/03/05 08:24:10;;;;;;;2.52;1.00;;;;;;;0.74;52.36;99414.72;1695620;84;21047;-66
2023/03/05 08:26:41;;;;;;;2.00;0.90;;;;;;;0.91;52.54;99419.20;1695370;83;21652;-66
2023/03/05 08:29:11;;;;;;;1.55;0.80;;;;;;;1.26;52.75;99418.69;1695721;85;21035;-66
2023/03/05 08:31:45;;;;;;;4.37;1.57;;;;;;;1.71;51.57;99423.75;1695701;83;21098;-65
2023/03/05 08:34:14;;;;;;;5.97;1.75;;;;;;;2.12;51.03;99418.45;1695314;83;21055;-65
2023/03/05 08:36:43;;;;;;;4.55;1.30;;;;;;;2.49;49.75;99422.84;1695617;84;21050;-65
2023/03/05 08:39:11;;;;;;;2.55;0.98;;;;;;;2.66;48.58;99416.94;1695537;83;21106;-65
2023/03/05 08:41:42;;;;;;;2.80;1.37;;;;;;;2.84;48.76;99427.05;1695471;84;21047;-66
2023/03/05 08:44:12;;;;;;;3.42;1.07;;;;;;;3.16;48.01;99419.86;1695325;83;21022;-66
2023/03/05 08:46:43;;;;;;;6.53;1.40;;;;;;;3.27;46.83;99419.51;1695399;84;21502;-66
2023/03/05 08:49:12;;;;;;;4.97;0.98;;;;;;;3.28;47.29;99419.84;1695301;84;21090;-65
2023/03/05 08:51:41;;;;;;;2.00;1.10;;;;;;;3.44;47.15;99415.72;1695050;84;21051;-67
2023/03/05 08:54:10;;;;;;;3.22;0.90;;;;;;;3.52;46.45;99421.59;1723714;82;21016;-67
2023/03/05 08:56:39;;;;;;;1.82;0.80;;;;;;;3.41;46.38;99424.19;1710399;83;21054;-67
2023/03/05 08:59:09;;;;;;;4.28;0.95;;;;;;;3.26;46.53;99418.33;1712599;84;21447;-69
2023/03/05 09:01:39;;;;;;;2.35;1.27;;;;;;;3.11;47.00;99413.61;1683586;84;21017;-65
2023/03/05 09:04:09;;;;;;;9.50;1.90;;;;;;;3.09;47.55;99418.36;1710572;83;21038;-64
2023/03/05 09:06:40;;;;;;;5.10;1.55;;;;;;;3.01;46.93;99416.18;1709780;83;21043;-65
2023/03/05 09:09:12;;;;;;;5.33;1.00;;;;;;;2.89;47.44;99424.33;1712717;84;21035;-67
2023/03/05 09:11:43;;;;;;;2.47;0.90;;;;;;;2.92;57.41;99422.63;1680874;84;21019;-67
2023/03/05 09:14:12;;;;;;;2.02;0.80;;;;;;;2.97;49.55;99418.90;1712825;84;21042;-67
2023/03/05 09:16:43;;;;;;;4.08;1.00;;;;;;;2.87;48.16;99432.62;1712275;83;21059;-66
2023/03/05 09:19:13;;;;;;;1.47;0.60;;;;;;;2.69;47.34;99431.47;1712892;83;21091;-65
2023/03/05 09:21:42;;;;;;;2.50;0.68;;;;;;;2.50;47.66;99438.55;1712651;83;21519;-65
2023/03/05 09:24:13;;;;;;;1.17;0.60;;;;;;;2.34;47.90;99436.69;1712674;83;21043;-65
2023/03/05 09:26:43;;;;;;;1.05;0.50;;;;;;;2.29;48.42;99436.86;1712189;84;21094;-68
2023/03/05 09:29:13;;;;;;;2.58;0.93;;;;;;;2.23;48.13;99440.58;1686724;83;21100;-66
2023/03/05 09:31:42;;;;;;;2.52;0.70;;;;;;;2.11;47.73;99439.22;1709814;84;21509;-65
2023/03/05 09:34:12;;;;;;;3.37;0.70;;;;;;;1.99;48.17;99436.50;1684980;84;21028;-64
2023/03/05 09:36:41;;;;;;;4.58;0.80;;;;;;;1.96;48.61;99440.89;1709951;83;21130;-69
2023/03/05 09:39:10;;;;;;;4.25;1.62;;;;;;;1.94;48.46;99433.92;1707609;83;21489;-65
2023/03/05 09:42:02;;;;;;;3.35;0.80;;;;;;;2.00;48.71;99436.84;1709794;84;21099;-64
2023/03/05 09:45:10;;;;;;;4.15;0.70;;;;;;;2.10;48.79;99432.13;1709871;83;21611;-65
2023/03/05 09:48:00;;;;;;;2.90;0.82;;;;;;;2.17;48.18;99434.49;1709694;83;21067;-65
2023/03/05 09:50:46;;;;;;;2.67;0.98;;;;;;;2.18;48.51;99429.94;1709624;83;21027;-65
2023/03/05 09:53:29;;;;;;;7.42;1.02;;;;;;;2.17;48.62;99422.33;1710336;84;21098;-65
2023/03/05 09:56:01;;;;;;;4.80;1.10;;;;;;;2.22;48.52;99429.94;1710672;84;21000;-64
2023/03/05 09:58:38;;;;;;;5.83;1.10;;;;;;;2.23;48.53;99426.22;1710330;83;21115;-64
2023/03/05 10:01:13;;;;;;;2.55;0.93;;;;;;;2.22;48.26;99433.48;1710363;83;21470;-66
2023/03/05 10:04:11;;;;;;;2.60;1.22;;;;;;;2.22;47.72;99428.08;1742196;81;21065;-65
2023/03/05 10:07:10;;;;;;;5.92;1.62;;;;;;;2.18;48.17;99418.62;1750684;81;21069;-67
2023/03/05 10:09:58;;;;;;;1.47;0.70;;;;;;;2.18;47.79;99427.23;1750843;82;21045;-62
2023/03/05 10:12:45;;;;;;;6.25;1.50;;;;;;;2.09;47.19;99429.59;1750958;82;21014;-63
2023/03/05 10:15:36;;;;;;;5.47;0.90;;;;;;;1.98;47.79;99435.31;1750991;82;21491;-66
2023/03/05 10:18:43;;;;;;;4.45;1.07;;;;;;;1.96;47.90;99426.03;1750734;82;21076;-64
2023/03/05 10:21:23;;;;;;;1.77;0.93;;;;;;;1.96;47.75;99419.27;1750800;81;21021;-63
2023/03/05 10:24:10;;;;;;;1.60;0.80;;;;;;;1.94;46.97;99418.56;1750645;81;21116;-64
2023/03/05 10:27:03;;;;;;;3.83;1.10;;;;;;;1.89;47.36;99410.12;1750729;82;21057;-65
2023/03/05 10:29:46;;;;;;;2.30;0.82;;;;;;;1.91;47.83;99411.64;1739959;82;20990;-67
2023/03/05 10:32:51;;;;;;;2.30;0.85;;;;;;;2.00;47.54;99415.23;1751099;82;21005;-65
2023/03/05 10:35:41;;;;;;;1.22;0.68;;;;;;;2.04;47.74;99416.59;1750746;81;21499;-63
2023/03/05 10:38:43;;;;;;;2.22;1.00;;;;;;;2.10;47.38;99407.81;1727029;82;21096;-66
2023/03/05 10:41:36;;;;;;;2.00;1.00;;;;;;;2.11;47.47;99399.20;1706022;83;21019;-63
2023/03/05 10:44:32;;;;;;;2.55;0.90;;;;;;;2.14;47.76;99409.16;1718214;83;21018;-65
2023/03/05 10:47:01;;;;;;;3.47;0.80;;;;;;;2.19;47.64;99401.90;1713954;83;21064;-66
2023/03/05 10:49:32;;;;;;;3.25;1.20;;;;;;;2.18;47.18;99401.05;1717212;83;21442;-66
2023/03/05 10:52:15;;;;;;;3.42;1.02;;;;;;;2.13;47.64;99423.69;1736815;82;21090;-65
2023/03/05 10:54:46;;;;;;;2.58;0.78;;;;;;;2.14;46.46;99416.42;1714540;82;21482;-64
2023/03/05 10:57:20;;;;;;;1.25;0.60;;;;;;;2.05;46.52;99411.52;1717942;83;21054;-63
2023/03/05 11:00:07;;;;;;;2.58;0.80;;;;;;;1.97;46.52;99419.61;1716722;83;21037;-64
2023/03/05 11:02:46;;;;;;;2.67;1.05;;;;;;;1.90;46.81;99418.05;1718172;83;21060;-64
2023/03/05 11:05:45;;;;;;;2.72;1.00;;;;;;;1.90;47.00;99418.56;1701519;82;21761;-63
2023/03/05 11:08:32;;;;;;;2.67;1.35;;;;;;;1.95;47.10;99414.01;1711731;83;21048;-62
2023/03/05 11:11:13;;;;;;;3.02;0.88;;;;;;;2.03;46.98;99405.44;1714623;83;21068;-64
2023/03/05 11:13:59;;;;;;;3.35;0.93;;;;;;;2.09;46.83;99403.92;1655723;86;21090;-63
2023/03/05 11:16:34;;;;;;;5.45;1.20;;;;;;;2.06;46.55;99402.41;1655709;86;21082;-65
2023/03/05 11:19:31;;;;;;;1.27;0.80;;;;;;;2.01;46.77;99401.22;1655491;85;21055;-64
2023/03/05 11:22:21;;;;;;;2.20;0.78;;;;;;;2.00;46.74;99403.58;1623962;88;21550;-65
2023/03/05 11:25:14;;;;;;;3.02;1.00;;;;;;;2.06;46.47;99402.41;1655605;87;21055;-64
2023/03/05 11:27:53;;;;;;;5.15;1.15;;;;;;;2.15;47.14;99395.98;1655553;87;21056;-65
2023/03/05 11:30:34;;;;;;;2.87;1.10;;;;;;;2.27;46.17;99391.59;1688575;85;21090;-64
2023/03/05 11:33:19;;;;;;;7.33;1.17;;;;;;;2.31;46.40;99401.90;1711365;84;21062;-64
2023/03/05 11:35:51;;;;;;;8.25;1.42;;;;;;;2.40;46.59;99395.98;1696009;84;21094;-64
2023/03/05 11:38:25;;;;;;;2.45;0.80;;;;;;;2.46;46.36;99381.78;1712017;83;21054;-63
2023/03/05 11:40:55;;;;;;;3.47;1.10;;;;;;;2.52;45.21;99381.09;1695933;84;21046;-65
2023/03/05 11:43:25;;;;;;;5.60;1.50;;;;;;;2.46;45.03;99385.33;1712083;83;21122;-64
2023/03/05 11:46:04;;;;;;;4.58;1.27;;;;;;;2.42;45.50;99391.25;1696518;84;21443;-64
2023/03/05 11:48:36;;;;;;;5.58;1.05;;;;;;;2.43;45.70;99386.18;1686956;84;21015;-66
2023/03/05 11:51:32;;;;;;;2.42;1.22;;;;;;;2.42;45.04;99393.95;1611995;89;21144;-64
2023/03/05 11:54:06;;;;;;;8.15;1.35;;;;;;;2.37;45.30;99393.11;1661138;86;21124;-63
2023/03/05 11:56:38;;;;;;;4.67;1.12;;;;;;;2.40;45.58;99395.47;1661052;86;21094;-63
2023/03/05 11:59:24;;;;;;;10.63;1.57;;;;;;;2.46;45.99;99388.03;1661013;86;21161;-63
2023/03/05 12:01:55;;;;;;;4.85;1.20;;;;;;;2.52;46.05;99391.41;1627234;87;21043;-63
2023/03/05 12:04:24;;;;;;;6.40;1.30;;;;;;;2.58;45.75;99385.82;1598708;90;21068;-63